Terminal Aerodrome Forecast
Issued by NWS

Current Version | Previous Version | Graphics & Text | Print | Product List | Glossary On
Versions: 1 2 3 4 5 6 7 8 9 10 11 12 13 14 15 16 17 18 19
010
FTUS41 KILN 211700
TAFLUK
TAF
KLUK 211726Z 2118/2218 30009KT P6SM OVC035
     FM220000 29006KT P6SM SCT040
     FM220500 VRB03KT P6SM SKC
     FM221500 28008KT P6SM SCT040=

USA.gov is the U.S. government's official web portal to all federal, state and local government web resources and services.